sensor_id;sensor_type;location;lat;lon;timestamp;temperature;humidity
3136;DHT22;1578;47.658;9.922;2022-12-07T11:31:11;3.90;99.00
3136;DHT22;1578;47.658;9.922;2022-12-07T11:41:47;4.60;88.60
3136;DHT22;1578;47.658;9.922;2022-12-07T11:44:49;4.60;87.90
3136;DHT22;1578;47.658;9.922;2022-12-07T11:47:27;4.70;89.10
3136;DHT22;1578;47.658;9.922;2022-12-07T12:03:34;4.90;76.80
3136;DHT22;1578;47.658;9.922;2022-12-07T12:06:02;5.10;73.20
3136;DHT22;1578;47.658;9.922;2022-12-07T12:08:55;5.10;72.20
3136;DHT22;1578;47.658;9.922;2022-12-07T12:11:46;5.20;69.70
3136;DHT22;1578;47.658;9.922;2022-12-07T12:19:32;5.10;71.70
3136;DHT22;1578;47.658;9.922;2022-12-07T12:22:20;5.20;73.80
3136;DHT22;1578;47.658;9.922;2022-12-07T12:24:54;5.30;66.90
3136;DHT22;1578;47.658;9.922;2022-12-07T12:27:27;5.40;63.50
3136;DHT22;1578;47.658;9.922;2022-12-07T12:30:00;5.40;59.80
3136;DHT22;1578;47.658;9.922;2022-12-07T12:32:43;5.50;65.60
3136;DHT22;1578;47.658;9.922;2022-12-07T12:35:35;5.40;64.40
3136;DHT22;1578;47.658;9.922;2022-12-07T12:38:47;5.40;66.60
3136;DHT22;1578;47.658;9.922;2022-12-07T12:41:52;5.30;61.80
3136;DHT22;1578;47.658;9.922;2022-12-07T12:49:30;5.40;62.00
3136;DHT22;1578;47.658;9.922;2022-12-07T12:51:59;5.40;59.60
3136;DHT22;1578;47.658;9.922;2022-12-07T12:54:38;5.40;57.00
3136;DHT22;1578;47.658;9.922;2022-12-07T12:57:32;5.30;61.90
3136;DHT22;1578;47.658;9.922;2022-12-07T13:00:15;5.40;59.80
3136;DHT22;1578;47.658;9.922;2022-12-07T13:02:59;5.40;59.60
3136;DHT22;1578;47.658;9.922;2022-12-07T13:05:34;5.50;60.50
3136;DHT22;1578;47.658;9.922;2022-12-07T13:08:24;5.60;63.30
3136;DHT22;1578;47.658;9.922;2022-12-07T13:10:51;5.60;56.00
3136;DHT22;1578;47.658;9.922;2022-12-07T13:28:39;5.50;60.60
3136;DHT22;1578;47.658;9.922;2022-12-07T13:33:39;5.40;59.80
3136;DHT22;1578;47.658;9.922;2022-12-07T13:36:21;5.30;61.90
3136;DHT22;1578;47.658;9.922;2022-12-07T13:38:53;5.30;58.90
3136;DHT22;1578;47.658;9.922;2022-12-07T13:41:21;5.20;62.10
3136;DHT22;1578;47.658;9.922;2022-12-07T13:43:55;5.30;60.10
3136;DHT22;1578;47.658;9.922;2022-12-07T13:49:36;5.20;62.50
3136;DHT22;1578;47.658;9.922;2022-12-07T13:52:18;5.10;65.00
3136;DHT22;1578;47.658;9.922;2022-12-07T13:57:22;5.10;60.80
3136;DHT22;1578;47.658;9.922;2022-12-07T13:59:49;5.10;61.70
3136;DHT22;1578;47.658;9.922;2022-12-07T14:02:26;5.10;62.70
3136;DHT22;1578;47.658;9.922;2022-12-07T14:05:12;5.00;59.90
3136;DHT22;1578;47.658;9.922;2022-12-07T14:10:25;4.90;60.60
3136;DHT22;1578;47.658;9.922;2022-12-07T14:12:54;4.50;73.00
3136;DHT22;1578;47.658;9.922;2022-12-07T14:15:22;4.10;78.30
3136;DHT22;1578;47.658;9.922;2022-12-07T14:17:54;3.80;81.80
3136;DHT22;1578;47.658;9.922;2022-12-07T14:20:39;3.80;84.90
3136;DHT22;1578;47.658;9.922;2022-12-07T14:23:25;3.60;86.20
3136;DHT22;1578;47.658;9.922;2022-12-07T14:25:52;3.50;88.20
3136;DHT22;1578;47.658;9.922;2022-12-07T14:28:33;3.40;90.70
3136;DHT22;1578;47.658;9.922;2022-12-07T14:31:00;3.30;90.90
3136;DHT22;1578;47.658;9.922;2022-12-07T14:33:26;3.10;92.20
3136;DHT22;1578;47.658;9.922;2022-12-07T14:35:52;3.30;92.00
3136;DHT22;1578;47.658;9.922;2022-12-07T14:38:23;3.20;91.40
3136;DHT22;1578;47.658;9.922;2022-12-07T14:40:50;3.10;91.80
3136;DHT22;1578;47.658;9.922;2022-12-07T14:43:18;3.00;92.70
3136;DHT22;1578;47.658;9.922;2022-12-07T14:45:44;3.10;93.10
3136;DHT22;1578;47.658;9.922;2022-12-07T14:48:14;3.00;93.10
3136;DHT22;1578;47.658;9.922;2022-12-07T14:50:51;3.00;93.90
3136;DHT22;1578;47.658;9.922;2022-12-07T14:53:21;3.00;93.20
3136;DHT22;1578;47.658;9.922;2022-12-07T14:55:50;3.00;93.60
3136;DHT22;1578;47.658;9.922;2022-12-07T14:58:17;2.90;94.20
3136;DHT22;1578;47.658;9.922;2022-12-07T15:00:43;2.80;93.40
3136;DHT22;1578;47.658;9.922;2022-12-07T15:03:09;2.70;94.00
3136;DHT22;1578;47.658;9.922;2022-12-07T15:05:36;2.80;95.10
3136;DHT22;1578;47.658;9.922;2022-12-07T15:08:02;2.80;95.00
3136;DHT22;1578;47.658;9.922;2022-12-07T15:10:31;2.80;93.80
3136;DHT22;1578;47.658;9.922;2022-12-07T15:13:01;2.80;94.30
3136;DHT22;1578;47.658;9.922;2022-12-07T15:15:51;2.70;95.00
3136;DHT22;1578;47.658;9.922;2022-12-07T15:18:18;2.90;94.10
3136;DHT22;1578;47.658;9.922;2022-12-07T15:20:44;2.80;93.70
3136;DHT22;1578;47.658;9.922;2022-12-07T15:23:11;2.80;94.90
3136;DHT22;1578;47.658;9.922;2022-12-07T15:25:42;3.00;93.20
3136;DHT22;1578;47.658;9.922;2022-12-07T15:28:08;3.00;93.60
3136;DHT22;1578;47.658;9.922;2022-12-07T15:30:36;2.90;93.70
3136;DHT22;1578;47.658;9.922;2022-12-07T15:33:02;2.80;93.50
3136;DHT22;1578;47.658;9.922;2022-12-07T15:35:28;2.90;95.00
3136;DHT22;1578;47.658;9.922;2022-12-07T15:37:53;3.10;93.40
3136;DHT22;1578;47.658;9.922;2022-12-07T15:40:19;3.10;93.60
3136;DHT22;1578;47.658;9.922;2022-12-07T15:42:45;3.00;93.60
3136;DHT22;1578;47.658;9.922;2022-12-07T15:45:10;3.00;93.30
3136;DHT22;1578;47.658;9.922;2022-12-07T15:47:38;3.00;93.80
3136;DHT22;1578;47.658;9.922;2022-12-07T15:50:06;3.20;92.40
3136;DHT22;1578;47.658;9.922;2022-12-07T15:52:33;3.10;92.00
3136;DHT22;1578;47.658;9.922;2022-12-07T15:54:59;3.10;92.30
3136;DHT22;1578;47.658;9.922;2022-12-07T15:57:26;3.00;91.50
3136;DHT22;1578;47.658;9.922;2022-12-07T15:59:52;3.00;92.20
3136;DHT22;1578;47.658;9.922;2022-12-07T16:02:19;2.90;92.70
3136;DHT22;1578;47.658;9.922;2022-12-07T16:04:44;2.80;92.50
3136;DHT22;1578;47.658;9.922;2022-12-07T16:07:11;2.60;94.00
3136;DHT22;1578;47.658;9.922;2022-12-07T16:09:37;2.80;94.10
3136;DHT22;1578;47.658;9.922;2022-12-07T16:12:03;2.80;93.30
3136;DHT22;1578;47.658;9.922;2022-12-07T16:14:29;2.70;94.00
3136;DHT22;1578;47.658;9.922;2022-12-07T16:16:57;2.70;94.00
3136;DHT22;1578;47.658;9.922;2022-12-07T16:19:23;2.60;93.70
3136;DHT22;1578;47.658;9.922;2022-12-07T16:21:49;2.60;93.80
3136;DHT22;1578;47.658;9.922;2022-12-07T16:24:14;2.60;94.80
3136;DHT22;1578;47.658;9.922;2022-12-07T16:26:40;2.60;94.20
3136;DHT22;1578;47.658;9.922;2022-12-07T16:29:06;2.70;94.70
3136;DHT22;1578;47.658;9.922;2022-12-07T16:31:32;2.80;94.80
3136;DHT22;1578;47.658;9.922;2022-12-07T16:33:58;2.90;94.40
3136;DHT22;1578;47.658;9.922;2022-12-07T16:36:24;3.00;93.40
3136;DHT22;1578;47.658;9.922;2022-12-07T16:38:52;3.00;92.30
3136;DHT22;1578;47.658;9.922;2022-12-07T16:41:18;2.80;92.20
3136;DHT22;1578;47.658;9.922;2022-12-07T16:43:44;2.90;93.50
3136;DHT22;1578;47.658;9.922;2022-12-07T16:46:10;3.10;93.50
3136;DHT22;1578;47.658;9.922;2022-12-07T16:48:40;3.20;91.80
3136;DHT22;1578;47.658;9.922;2022-12-07T16:51:07;3.10;92.00
3136;DHT22;1578;47.658;9.922;2022-12-07T16:53:37;3.20;91.60
3136;DHT22;1578;47.658;9.922;2022-12-07T16:56:05;3.10;90.90
3136;DHT22;1578;47.658;9.922;2022-12-07T16:58:34;3.10;91.20
3136;DHT22;1578;47.658;9.922;2022-12-07T17:01:16;3.10;91.80
3136;DHT22;1578;47.658;9.922;2022-12-07T17:03:42;3.20;91.40
3136;DHT22;1578;47.658;9.922;2022-12-07T17:06:20;3.30;91.20
3136;DHT22;1578;47.658;9.922;2022-12-07T17:08:46;3.20;90.50
3136;DHT22;1578;47.658;9.922;2022-12-07T17:11:27;3.30;90.50
3136;DHT22;1578;47.658;9.922;2022-12-07T17:13:53;3.30;90.50
3136;DHT22;1578;47.658;9.922;2022-12-07T17:16:38;3.30;90.50
3136;DHT22;1578;47.658;9.922;2022-12-07T17:19:05;3.40;88.80
3136;DHT22;1578;47.658;9.922;2022-12-07T17:21:31;3.40;87.00
3136;DHT22;1578;47.658;9.922;2022-12-07T17:24:02;3.50;85.00
3136;DHT22;1578;47.658;9.922;2022-12-07T17:26:29;3.50;83.70
3136;DHT22;1578;47.658;9.922;2022-12-07T17:28:55;3.30;85.00
3136;DHT22;1578;47.658;9.922;2022-12-07T17:31:22;3.20;86.80
3136;DHT22;1578;47.658;9.922;2022-12-07T17:33:48;3.10;87.80
3136;DHT22;1578;47.658;9.922;2022-12-07T17:36:19;3.00;89.90
3136;DHT22;1578;47.658;9.922;2022-12-07T17:38:45;2.90;90.30
3136;DHT22;1578;47.658;9.922;2022-12-07T17:41:18;2.90;91.10
